Time;durP1;ratioP1;P1;durP2;ratioP2;P2;SDS_P1;SDS_P2;PMS_P1;PMS_P2;Temp;Humidity;BMP_temperature;BMP_pressure;BME280_temperature;BME280_humidity;BME280_pressure;Samples;Min_cycle;Max_cycle;Signal;HPM_P1;HPM_P2
2023/08/26 00:00:00;;;;;;;13.55;9.93;;;27.30;99.90;;;;;;7403636;19;19926;-71
2023/08/26 00:02:26;;;;;;;12.77;8.65;;;27.30;99.90;;;;;;7370772;19;20463;-71
2023/08/26 00:04:52;;;;;;;13.23;10.85;;;27.20;99.90;;;;;;7400948;19;19918;-73
2023/08/26 00:07:17;;;;;;;12.55;8.68;;;27.20;99.90;;;;;;7408102;19;19914;-72
2023/08/26 00:09:43;;;;;;;11.98;10.48;;;27.20;99.90;;;;;;7401732;19;19934;-72
2023/08/26 00:12:09;;;;;;;13.40;8.73;;;27.30;99.90;;;;;;7399583;19;19919;-72
2023/08/26 00:14:35;;;;;;;13.38;10.07;;;27.30;99.90;;;;;;7402223;19;19920;-72
2023/08/26 00:17:01;;;;;;;12.88;8.85;;;27.30;99.90;;;;;;7401987;19;19929;-74
2023/08/26 00:19:26;;;;;;;12.98;8.57;;;27.30;99.90;;;;;;7401069;19;20436;-74
2023/08/26 00:21:52;;;;;;;13.20;8.65;;;27.30;99.90;;;;;;7403650;19;20028;-72
2023/08/26 00:24:19;;;;;;;11.00;9.55;;;27.20;99.90;;;;;;7368651;19;20528;-72
2023/08/26 00:26:45;;;;;;;12.02;10.02;;;27.20;99.90;;;;;;7403024;19;19914;-72
2023/08/26 00:29:11;;;;;;;11.15;8.80;;;27.10;99.90;;;;;;7403387;19;19923;-73
2023/08/26 00:31:37;;;;;;;11.82;8.73;;;27.10;99.90;;;;;;7410091;19;19922;-70
2023/08/26 00:34:03;;;;;;;11.75;9.15;;;27.10;99.90;;;;;;7399505;19;19918;-72
2023/08/26 00:36:33;;;;;;;14.13;8.98;;;27.10;99.90;;;;;;7402217;19;19922;-73
2023/08/26 00:38:58;;;;;;;12.23;9.25;;;27.10;99.90;;;;;;7400888;19;20578;-73
2023/08/26 00:41:24;;;;;;;12.07;9.10;;;27.10;99.90;;;;;;7401528;19;19926;-70
2023/08/26 00:43:50;;;;;;;11.95;9.02;;;27.10;99.90;;;;;;7401128;19;19923;-74
2023/08/26 00:46:16;;;;;;;13.02;10.60;;;27.00;99.90;;;;;;7400517;19;19938;-72
2023/08/26 00:48:42;;;;;;;11.88;9.90;;;27.00;99.90;;;;;;7401343;19;19919;-73
2023/08/26 00:51:08;;;;;;;13.25;9.55;;;27.00;99.90;;;;;;7401830;19;19918;-72
2023/08/26 00:53:35;;;;;;;12.55;8.48;;;27.00;99.90;;;;;;7403434;19;19922;-74
2023/08/26 00:56:00;;;;;;;11.98;8.45;;;27.00;99.90;;;;;;7400897;19;19929;-73
2023/08/26 00:58:28;;;;;;;10.27;8.07;;;27.00;99.90;;;;;;7398182;19;19918;-74
2023/08/26 01:00:55;;;;;;;11.75;8.55;;;27.00;99.90;;;;;;7401613;19;20244;-75
2023/08/26 01:03:20;;;;;;;12.05;8.90;;;27.10;99.90;;;;;;7401782;19;19919;-74
2023/08/26 01:05:46;;;;;;;11.32;9.18;;;27.00;99.90;;;;;;7399365;19;19945;-74
2023/08/26 01:08:13;;;;;;;12.68;8.80;;;27.00;99.90;;;;;;7399272;19;19946;-74
2023/08/26 01:11:07;;;;;;;10.70;8.00;;;27.00;99.90;;;;;;7399891;19;19915;-73
2023/08/26 01:13:37;;;;;;;11.10;8.45;;;27.00;99.90;;;;;;7369408;19;19915;-72
2023/08/26 01:16:05;;;;;;;10.82;8.35;;;27.00;99.90;;;;;;7398072;19;20689;-71
2023/08/26 01:18:31;;;;;;;14.05;9.15;;;27.00;99.90;;;;;;7404687;19;19951;-74
2023/08/26 01:20:57;;;;;;;13.65;11.20;;;27.00;99.90;;;;;;7412768;19;19919;-74
2023/08/26 01:23:32;;;;;;;13.13;9.98;;;27.00;99.90;;;;;;7412644;19;19950;-73
2023/08/26 01:25:59;;;;;;;13.85;9.88;;;27.00;99.90;;;;;;7411754;19;19941;-73
2023/08/26 01:28:25;;;;;;;14.98;9.90;;;26.90;99.90;;;;;;7412229;19;20262;-73
2023/08/26 01:30:51;;;;;;;11.05;9.50;;;26.80;99.90;;;;;;7413862;19;19922;-73
2023/08/26 01:33:22;;;;;;;11.25;9.27;;;26.80;99.90;;;;;;7411231;19;19929;-74
2023/08/26 01:35:53;;;;;;;12.25;9.85;;;26.80;99.90;;;;;;7414259;19;19926;-74
2023/08/26 01:38:20;;;;;;;18.00;10.05;;;26.80;99.90;;;;;;7402646;19;20438;-74
2023/08/26 01:40:53;;;;;;;12.60;9.57;;;26.70;99.90;;;;;;7403021;19;20325;-72
2023/08/26 01:43:20;;;;;;;15.52;9.82;;;26.70;99.90;;;;;;7398424;19;20410;-72
2023/08/26 01:45:46;;;;;;;11.80;9.50;;;26.70;99.90;;;;;;7400211;19;19947;-71
2023/08/26 01:48:12;;;;;;;14.32;9.32;;;26.60;99.90;;;;;;7395624;19;19927;-73
2023/08/26 01:50:38;;;;;;;14.57;10.30;;;26.60;99.90;;;;;;7400769;19;19970;-73
2023/08/26 01:53:04;;;;;;;14.85;11.63;;;26.60;99.90;;;;;;7396572;19;20400;-73
2023/08/26 01:55:30;;;;;;;15.30;9.68;;;26.60;99.90;;;;;;7402287;19;20010;-72
2023/08/26 01:57:55;;;;;;;12.73;11.18;;;26.50;99.90;;;;;;7403257;19;20335;-72
2023/08/26 02:00:21;;;;;;;13.40;9.95;;;26.40;99.90;;;;;;7405088;19;19986;-73
2023/08/26 02:02:47;;;;;;;15.05;9.93;;;26.40;99.90;;;;;;7404435;19;19922;-73
2023/08/26 02:05:13;;;;;;;13.55;9.55;;;26.40;99.90;;;;;;7404115;19;19918;-73
2023/08/26 02:07:38;;;;;;;11.95;9.27;;;26.40;99.90;;;;;;7404670;19;19914;-72
2023/08/26 02:10:05;;;;;;;18.75;10.23;;;26.40;99.90;;;;;;7411372;19;19935;-74
2023/08/26 02:12:30;;;;;;;15.25;10.13;;;26.40;99.90;;;;;;7409853;19;19978;-73
2023/08/26 02:14:56;;;;;;;12.63;10.15;;;26.40;99.90;;;;;;7407717;19;19935;-73
2023/08/26 02:17:22;;;;;;;13.80;9.57;;;26.40;99.90;;;;;;7403864;19;19980;-74
2023/08/26 02:19:48;;;;;;;13.57;10.25;;;26.30;99.90;;;;;;7374760;19;19954;-75
2023/08/26 02:22:15;;;;;;;16.10;10.63;;;26.30;99.90;;;;;;7405563;19;19944;-74
2023/08/26 02:24:43;;;;;;;14.55;10.98;;;26.40;99.90;;;;;;7405498;19;19911;-74
2023/08/26 02:27:09;;;;;;;16.08;10.85;;;26.40;99.90;;;;;;7399656;19;19926;-73
2023/08/26 02:29:34;;;;;;;12.57;9.40;;;26.40;99.90;;;;;;7404718;19;19978;-73
2023/08/26 02:32:00;;;;;;;12.75;9.55;;;26.40;99.90;;;;;;7405327;19;19947;-74
2023/08/26 02:34:26;;;;;;;12.13;9.60;;;26.40;99.90;;;;;;7405758;19;20316;-73
2023/08/26 02:36:52;;;;;;;13.88;9.82;;;26.30;99.90;;;;;;7405008;19;19918;-73
2023/08/26 02:39:18;;;;;;;14.57;10.43;;;26.30;99.90;;;;;;7404110;19;20334;-73
2023/08/26 02:41:44;;;;;;;12.80;10.30;;;26.30;99.90;;;;;;7404824;19;19933;-74
2023/08/26 02:44:10;;;;;;;14.48;9.57;;;26.30;99.90;;;;;;7406129;19;19918;-74
2023/08/26 02:46:35;;;;;;;12.68;9.75;;;26.30;99.90;;;;;;7405724;19;19923;-73
2023/08/26 02:49:03;;;;;;;13.93;9.13;;;26.30;99.90;;;;;;7406367;19;19914;-74
2023/08/26 02:51:28;;;;;;;15.70;9.73;;;26.20;99.90;;;;;;7403752;19;19950;-74
2023/08/26 02:53:54;;;;;;;12.75;9.10;;;26.20;99.90;;;;;;7404873;19;20319;-74
2023/08/26 02:56:20;;;;;;;15.68;10.77;;;26.10;99.90;;;;;;7405212;19;19922;-74
2023/08/26 02:58:46;;;;;;;16.13;9.48;;;26.00;99.90;;;;;;7405297;19;19919;-73
2023/08/26 03:01:12;;;;;;;12.82;9.55;;;26.00;99.90;;;;;;7404223;19;20828;-74
2023/08/26 03:03:37;;;;;;;15.38;10.13;;;26.00;99.90;;;;;;7403652;19;20263;-72
2023/08/26 03:06:03;;;;;;;13.80;10.65;;;26.00;99.90;;;;;;7403099;19;19925;-73
2023/08/26 03:08:29;;;;;;;12.75;9.82;;;26.00;99.90;;;;;;7406002;19;20383;-74
2023/08/26 03:11:00;;;;;;;14.38;10.35;;;26.00;99.90;;;;;;7406396;19;19994;-73
2023/08/26 03:13:26;;;;;;;15.10;11.13;;;25.90;99.90;;;;;;7395454;19;19919;-73
2023/08/26 03:15:52;;;;;;;17.33;11.18;;;25.90;99.90;;;;;;7404023;19;19922;-73
2023/08/26 03:18:18;;;;;;;15.05;10.90;;;25.80;99.90;;;;;;7403747;19;19937;-73
2023/08/26 03:20:43;;;;;;;14.93;10.27;;;25.80;99.90;;;;;;7404166;19;19918;-73
2023/08/26 03:23:09;;;;;;;14.05;10.35;;;25.80;99.90;;;;;;7402789;19;19994;-73
2023/08/26 03:25:39;;;;;;;15.95;10.68;;;25.80;99.90;;;;;;7403855;19;19907;-73
2023/08/26 03:28:05;;;;;;;14.98;11.20;;;25.70;99.90;;;;;;7379292;19;20342;-73
2023/08/26 03:30:32;;;;;;;13.45;10.45;;;25.70;99.90;;;;;;7403665;19;19923;-74
2023/08/26 03:32:57;;;;;;;18.65;11.00;;;25.70;99.90;;;;;;7404253;19;19935;-73
2023/08/26 03:35:23;;;;;;;14.00;9.68;;;25.70;99.90;;;;;;7402771;19;19919;-73
2023/08/26 03:37:49;;;;;;;13.55;9.18;;;25.80;99.90;;;;;;7403846;19;19914;-73
2023/08/26 03:40:15;;;;;;;13.88;9.77;;;25.80;99.90;;;;;;7402792;19;19927;-71
2023/08/26 03:42:41;;;;;;;13.90;10.32;;;25.80;99.90;;;;;;7404726;19;19926;-71
2023/08/26 03:45:07;;;;;;;11.18;9.50;;;25.70;99.90;;;;;;7402938;19;20226;-72
2023/08/26 03:47:34;;;;;;;12.57;9.52;;;25.70;99.90;;;;;;7402782;19;19969;-71
2023/08/26 03:50:00;;;;;;;14.23;10.07;;;25.70;99.90;;;;;;7401934;19;19955;-71
2023/08/26 03:52:26;;;;;;;13.38;9.30;;;25.70;99.90;;;;;;7402634;19;19943;-71
2023/08/26 03:54:51;;;;;;;13.23;10.00;;;25.70;99.90;;;;;;7402561;19;19941;-72
2023/08/26 03:57:17;;;;;;;12.43;10.07;;;25.70;99.90;;;;;;7400970;19;19935;-72
2023/08/26 03:59:44;;;;;;;12.38;9.63;;;25.70;99.90;;;;;;7402650;19;20666;-72
2023/08/26 04:02:09;;;;;;;;;;;25.70;99.90;;;;;;7404586;19;19930;-73
2023/08/26 04:04:35;;;;;;;13.05;9.20;;;25.70;99.90;;;;;;7403303;19;19929;-72
2023/08/26 04:07:01;;;;;;;13.45;9.35;;;25.60;99.90;;;;;;7403211;19;20339;-72
2023/08/26 04:09:27;;;;;;;13.45;9.65;;;25.60;99.90;;;;;;7401643;19;20047;-72
2023/08/26 04:11:53;;;;;;;13.88;9.90;;;25.60;99.90;;;;;;7402253;19;20258;-72
2023/08/26 04:14:18;;;;;;;14.02;9.00;;;25.60;99.90;;;;;;7404265;19;19932;-72
2023/08/26 04:16:44;;;;;;;12.70;8.60;;;25.60;99.90;;;;;;7403750;19;19911;-71
2023/08/26 04:19:10;;;;;;;15.25;9.38;;;25.50;99.90;;;;;;7400901;19;19914;-72
2023/08/26 04:21:36;;;;;;;10.85;8.52;;;25.50;99.90;;;;;;7403020;19;20388;-73
2023/08/26 04:24:01;;;;;;;11.02;8.18;;;25.60;99.90;;;;;;7403277;19;19981;-72
2023/08/26 04:26:27;;;;;;;12.70;8.70;;;25.60;99.90;;;;;;7400607;19;19918;-73
2023/08/26 04:28:53;;;;;;;11.82;8.52;;;25.70;99.90;;;;;;7401429;19;19927;-73
2023/08/26 04:31:19;;;;;;;12.27;9.60;;;25.70;99.90;;;;;;7402831;19;20263;-72
2023/08/26 04:33:45;;;;;;;10.02;8.57;;;25.80;99.90;;;;;;7403360;19;19921;-72
2023/08/26 04:36:11;;;;;;;14.68;9.25;;;25.80;99.90;;;;;;7402364;19;20022;-73
2023/08/26 04:38:36;;;;;;;17.13;9.15;;;25.80;99.90;;;;;;7403469;19;19919;-72
2023/08/26 04:41:02;;;;;;;13.18;8.70;;;25.70;99.90;;;;;;7401365;19;20041;-72
2023/08/26 04:43:29;;;;;;;12.90;8.73;;;25.70;99.90;;;;;;7402992;19;19929;-72
2023/08/26 04:45:55;;;;;;;10.20;7.72;;;25.70;99.90;;;;;;7402963;19;20335;-72
2023/08/26 04:48:21;;;;;;;10.48;7.85;;;25.70;99.90;;;;;;7398807;19;19926;-72
2023/08/26 04:50:47;;;;;;;;;;;25.70;99.90;;;;;;7405588;19;19929;-72
2023/08/26 04:53:13;;;;;;;10.15;7.50;;;25.70;99.90;;;;;;7398959;19;19953;-72
2023/08/26 04:55:39;;;;;;;12.27;7.85;;;25.80;99.90;;;;;;7400821;19;19914;-73
2023/08/26 04:58:07;;;;;;;12.77;7.30;;;25.70;99.90;;;;;;7401929;19;19935;-72
2023/08/26 05:00:33;;;;;;;12.43;8.60;;;25.70;99.90;;;;;;7403118;19;20320;-73
2023/08/26 05:02:59;;;;;;;10.13;7.03;;;25.80;99.90;;;;;;7398618;19;19918;-71
2023/08/26 05:05:26;;;;;;;12.73;7.05;;;25.80;99.90;;;;;;7399204;19;19914;-72
2023/08/26 05:07:52;;;;;;;11.77;7.68;;;25.90;99.90;;;;;;7397030;19;19921;-72
2023/08/26 05:10:18;;;;;;;10.10;7.20;;;25.90;99.90;;;;;;7398516;19;19919;-73
2023/08/26 05:12:44;;;;;;;10.02;7.03;;;25.90;99.90;;;;;;7400723;19;19914;-71
2023/08/26 05:15:10;;;;;;;13.75;7.63;;;25.90;99.90;;;;;;7398739;19;19923;-72
2023/08/26 05:17:35;;;;;;;11.55;7.15;;;26.00;99.90;;;;;;7402192;19;19918;-72
2023/08/26 05:20:02;;;;;;;9.95;6.82;;;26.00;99.90;;;;;;7400459;19;19921;-73
2023/08/26 05:22:28;;;;;;;10.27;6.45;;;25.90;99.90;;;;;;7401632;19;20271;-73
2023/08/26 05:24:54;;;;;;;13.23;6.20;;;26.00;99.90;;;;;;7400538;19;19926;-72
2023/08/26 05:27:22;;;;;;;9.75;5.78;;;26.00;99.90;;;;;;7399800;19;19921;-73
2023/08/26 05:29:48;;;;;;;10.65;5.93;;;26.00;99.90;;;;;;7399748;19;19933;-72
2023/08/26 05:32:13;;;;;;;11.32;6.85;;;26.00;99.90;;;;;;7398791;19;19914;-72
2023/08/26 05:34:39;;;;;;;11.25;5.95;;;26.00;99.90;;;;;;7400284;19;19918;-72
2023/08/26 05:37:05;;;;;;;9.93;6.05;;;26.10;99.90;;;;;;7399913;19;20262;-73
2023/08/26 05:39:31;;;;;;;9.65;5.65;;;26.00;99.90;;;;;;7399335;19;19910;-74
2023/08/26 05:41:57;;;;;;;10.68;6.10;;;26.10;99.90;;;;;;7399264;19;19925;-73
2023/08/26 05:44:23;;;;;;;13.35;5.57;;;26.00;99.90;;;;;;7396443;19;19935;-73
2023/08/26 05:46:48;;;;;;;10.23;5.97;;;26.10;99.90;;;;;;7399695;19;19990;-73
2023/08/26 05:49:14;;;;;;;10.18;5.00;;;26.10;99.90;;;;;;7378208;19;19922;-73
2023/08/26 05:51:40;;;;;;;7.57;4.75;;;26.10;99.90;;;;;;7400035;19;19919;-74
2023/08/26 05:54:06;;;;;;;13.02;5.45;;;26.20;99.90;;;;;;7396210;19;19919;-73
2023/08/26 05:56:34;;;;;;;12.90;5.88;;;26.20;99.90;;;;;;7400819;19;19922;-73
2023/08/26 05:59:00;;;;;;;10.73;5.43;;;26.20;99.90;;;;;;7393914;19;19919;-73
2023/08/26 06:01:25;;;;;;;11.70;5.25;;;26.30;99.90;;;;;;7399527;19;19978;-72
2023/08/26 06:03:51;;;;;;;11.13;5.15;;;26.40;99.60;;;;;;7399458;19;20026;-73
2023/08/26 06:06:17;;;;;;;6.68;4.28;;;26.40;99.50;;;;;;7401161;19;20255;-73
2023/08/26 06:08:43;;;;;;;9.88;4.85;;;26.40;99.20;;;;;;7402430;19;19926;-75
2023/08/26 06:11:09;;;;;;;11.20;4.75;;;26.50;99.00;;;;;;7403543;19;20294;-76
2023/08/26 06:13:34;;;;;;;10.13;4.05;;;26.50;98.60;;;;;;7404282;19;19922;-75
2023/08/26 06:16:00;;;;;;;8.02;5.50;;;26.60;98.40;;;;;;7404550;19;19958;-74
2023/08/26 06:18:26;;;;;;;8.98;4.78;;;26.60;98.00;;;;;;7394289;19;20014;-76
2023/08/26 06:20:52;;;;;;;9.55;4.50;;;26.70;97.80;;;;;;7394731;19;19946;-75
2023/08/26 06:23:19;;;;;;;13.18;4.63;;;26.80;97.40;;;;;;7392116;19;20012;-74
2023/08/26 06:25:52;;;;;;;12.10;4.85;;;26.70;97.40;;;;;;7394180;19;19927;-75
2023/08/26 06:28:18;;;;;;;11.68;4.82;;;26.70;97.40;;;;;;7394265;19;19914;-74
2023/08/26 06:30:44;;;;;;;10.88;5.95;;;26.80;97.20;;;;;;7392486;19;19914;-75
2023/08/26 06:33:09;;;;;;;9.63;4.68;;;26.80;97.20;;;;;;7396555;19;19915;-74
2023/08/26 06:35:35;;;;;;;10.85;4.97;;;26.80;97.10;;;;;;7397989;19;19926;-74
2023/08/26 06:38:02;;;;;;;11.07;5.45;;;26.80;97.10;;;;;;7395024;19;19910;-75
2023/08/26 06:40:31;;;;;;;12.23;5.20;;;26.80;96.90;;;;;;7396524;19;20247;-74
2023/08/26 06:42:57;;;;;;;7.55;4.20;;;26.80;96.90;;;;;;7403715;19;19914;-75
2023/08/26 06:45:23;;;;;;;11.52;4.53;;;26.80;96.80;;;;;;7406678;19;19927;-74
2023/08/26 06:47:49;;;;;;;6.88;4.90;;;26.90;96.80;;;;;;7408414;19;19950;-74
2023/08/26 06:50:15;;;;;;;10.00;4.70;;;27.00;96.60;;;;;;7406630;19;19922;-75
2023/08/26 06:52:41;;;;;;;14.48;4.85;;;27.00;96.30;;;;;;7408022;19;19915;-74
2023/08/26 06:55:08;;;;;;;7.80;4.40;;;27.00;96.50;;;;;;7407495;19;20648;-74
2023/08/26 06:57:35;;;;;;;12.07;4.95;;;27.00;96.60;;;;;;7407066;19;19930;-75
2023/08/26 07:00:05;;;;;;;8.48;4.57;;;27.10;96.40;;;;;;7409301;19;21289;-74
2023/08/26 07:02:31;;;;;;;12.60;5.45;;;27.20;96.20;;;;;;7406436;19;20608;-74
2023/08/26 07:04:57;;;;;;;9.60;5.18;;;27.30;96.00;;;;;;7375539;19;19914;-74
2023/08/26 07:07:22;;;;;;;13.02;5.40;;;27.30;96.00;;;;;;7406270;19;19982;-74
2023/08/26 07:09:48;;;;;;;9.45;5.82;;;27.40;96.00;;;;;;7408661;19;19978;-75
2023/08/26 07:12:17;;;;;;;12.30;6.57;;;27.60;95.70;;;;;;7402010;19;19923;-74
2023/08/26 07:14:43;;;;;;;9.10;5.90;;;27.80;95.10;;;;;;7407367;19;19919;-74
2023/08/26 07:17:09;;;;;;;11.25;6.15;;;27.90;94.80;;;;;;7403730;19;19918;-75
2023/08/26 07:19:34;;;;;;;11.20;6.05;;;28.00;94.40;;;;;;7407029;19;19922;-76
2023/08/26 07:22:00;;;;;;;10.82;5.43;;;28.10;94.10;;;;;;7404577;19;20439;-76
2023/08/26 07:24:26;;;;;;;9.88;7.40;;;28.10;93.90;;;;;;7403317;19;19926;-74
2023/08/26 07:26:52;;;;;;;11.23;7.30;;;28.20;93.80;;;;;;7402184;19;20022;-75
2023/08/26 07:29:17;;;;;;;10.45;7.20;;;28.30;93.60;;;;;;7403718;19;19926;-75
2023/08/26 07:31:43;;;;;;;10.68;5.72;;;28.30;93.40;;;;;;7401487;19;19918;-74
2023/08/26 07:34:09;;;;;;;11.32;7.38;;;28.20;93.40;;;;;;7405558;19;19926;-74
2023/08/26 07:36:35;;;;;;;13.07;6.53;;;28.30;93.20;;;;;;7405889;19;19926;-75
2023/08/26 07:39:01;;;;;;;11.35;7.03;;;28.20;93.20;;;;;;7404485;19;19918;-75
2023/08/26 07:41:26;;;;;;;12.77;6.97;;;28.30;93.00;;;;;;7403607;19;19918;-74
2023/08/26 07:43:52;;;;;;;8.48;5.78;;;28.30;92.90;;;;;;7405875;19;20249;-75
2023/08/26 07:46:22;;;;;;;10.75;6.07;;;28.50;92.60;;;;;;7402952;19;19935;-74
2023/08/26 07:48:48;;;;;;;9.70;6.07;;;28.60;92.20;;;;;;7405625;19;19922;-75
2023/08/26 07:51:13;;;;;;;11.05;5.80;;;28.70;91.60;;;;;;7402355;19;19914;-75
2023/08/26 07:53:39;;;;;;;9.90;5.03;;;28.80;91.30;;;;;;7404214;19;19923;-75
2023/08/26 07:56:05;;;;;;;9.13;5.53;;;29.00;91.00;;;;;;7402518;19;19966;-74
2023/08/26 07:58:31;;;;;;;9.98;6.28;;;29.10;90.90;;;;;;7406890;19;19915;-74
2023/08/26 08:00:57;;;;;;;11.95;7.32;;;29.10;90.30;;;;;;7410352;19;19928;-75
2023/08/26 08:03:22;;;;;;;11.05;6.40;;;28.60;91.10;;;;;;7408746;19;19943;-74
2023/08/26 08:05:48;;;;;;;9.20;5.40;;;28.40;91.90;;;;;;7406273;19;20347;-74
2023/08/26 08:08:14;;;;;;;11.63;5.00;;;28.30;92.50;;;;;;7409150;19;19937;-74
2023/08/26 08:10:40;;;;;;;7.50;5.70;;;28.30;92.80;;;;;;7412636;19;20014;-73
2023/08/26 08:13:06;;;;;;;11.02;5.30;;;28.30;93.00;;;;;;7409244;19;19922;-74
2023/08/26 08:15:31;;;;;;;9.40;5.57;;;28.20;93.10;;;;;;7414371;19;19919;-74
2023/08/26 08:17:57;;;;;;;10.10;5.70;;;28.20;93.20;;;;;;7410635;19;19978;-75
2023/08/26 08:20:23;;;;;;;8.48;5.70;;;28.20;93.60;;;;;;7391209;19;19918;-75
2023/08/26 08:22:49;;;;;;;10.63;6.22;;;28.10;93.80;;;;;;7414226;19;19983;-75
2023/08/26 08:25:15;;;;;;;12.75;5.95;;;28.10;94.00;;;;;;7383061;19;19917;-74
2023/08/26 08:27:41;;;;;;;;;;;28.10;93.90;;;;;;7415904;19;19922;-74
2023/08/26 08:30:07;;;;;;;14.32;6.13;;;28.40;93.60;;;;;;7413287;19;19919;-75
2023/08/26 08:32:33;;;;;;;7.63;4.45;;;28.80;92.70;;;;;;7376245;19;20509;-75
2023/08/26 08:34:59;;;;;;;;;;;29.00;91.40;;;;;;7411599;19;19919;-75
2023/08/26 08:37:25;;;;;;;8.40;4.15;;;29.30;90.70;;;;;;7405344;19;19981;-74
2023/08/26 08:39:51;;;;;;;8.98;4.07;;;30.50;87.00;;;;;;7407423;19;19914;-75
2023/08/26 08:42:18;;;;;;;11.25;5.00;;;31.60;81.00;;;;;;7403546;19;20334;-75
2023/08/26 08:44:46;;;;;;;11.75;5.53;;;32.20;76.00;;;;;;7408228;19;20337;-75
2023/08/26 08:47:13;;;;;;;10.35;5.97;;;31.60;76.80;;;;;;7410455;19;19959;-74
2023/08/26 08:49:42;;;;;;;10.68;5.55;;;31.40;77.90;;;;;;7414827;19;19925;-75
2023/08/26 08:52:09;;;;;;;10.77;5.78;;;31.90;76.90;;;;;;7405300;19;19925;-75
2023/08/26 08:54:35;;;;;;;10.63;5.53;;;32.90;73.80;;;;;;7408312;19;19923;-76
2023/08/26 08:57:06;;;;;;;10.15;5.53;;;33.50;70.50;;;;;;7412892;19;19906;-75
2023/08/26 08:59:37;;;;;;;9.07;5.15;;;33.80;69.30;;;;;;7414298;19;19965;-75
2023/08/26 09:02:05;;;;;;;8.43;6.15;;;34.10;69.10;;;;;;7414915;19;19950;-75
2023/08/26 09:04:31;;;;;;;11.52;5.05;;;34.90;66.30;;;;;;7416948;19;20258;-75
2023/08/26 09:06:57;;;;;;;9.15;5.65;;;35.40;63.90;;;;;;7413292;19;19952;-75
2023/08/26 09:09:23;;;;;;;10.02;5.97;;;35.80;62.70;;;;;;7414607;19;19939;-74
2023/08/26 09:11:50;;;;;;;11.35;7.13;;;35.40;62.80;;;;;;7415870;19;19927;-75
2023/08/26 09:14:16;;;;;;;11.25;6.78;;;35.40;63.70;;;;;;7413125;19;19915;-76
2023/08/26 09:16:43;;;;;;;14.20;5.78;;;35.80;62.20;;;;;;7410031;19;19915;-75
2023/08/26 09:19:11;;;;;;;8.77;6.05;;;35.10;63.10;;;;;;7414288;19;19914;-75
2023/08/26 09:21:41;;;;;;;10.85;6.13;;;34.50;65.10;;;;;;7414935;19;19924;-74
2023/08/26 09:24:13;;;;;;;10.02;6.05;;;35.10;65.30;;;;;;7412855;19;19931;-74
2023/08/26 09:26:39;;;;;;;;;;;34.90;63.50;;;;;;7417905;19;19919;-75
2023/08/26 09:29:18;;;;;;;7.53;5.22;;;34.00;65.50;;;;;;7413935;19;20002;-74
2023/08/26 09:31:52;;;;;;;10.30;5.45;;;32.90;69.50;;;;;;7414487;19;19915;-74
2023/08/26 09:34:32;;;;;;;8.95;4.65;;;32.30;71.70;;;;;;7408811;19;20299;-74
2023/08/26 09:36:59;;;;;;;11.73;4.70;;;31.90;73.30;;;;;;7405994;19;19934;-75
2023/08/26 09:39:26;;;;;;;9.18;4.88;;;31.70;75.00;;;;;;7403505;19;19918;-74
2023/08/26 09:41:55;;;;;;;10.93;6.45;;;31.70;75.10;;;;;;7408099;19;20338;-75
2023/08/26 09:44:24;;;;;;;9.77;6.13;;;33.00;73.10;;;;;;7408540;19;19919;-75
2023/08/26 09:46:50;;;;;;;15.45;5.65;;;33.00;71.00;;;;;;7412246;19;19923;-75
2023/08/26 09:49:17;;;;;;;10.43;5.80;;;33.80;69.30;;;;;;7409466;19;19923;-75
2023/08/26 09:51:48;;;;;;;8.18;5.63;;;34.00;68.20;;;;;;7416337;19;19915;-75
2023/08/26 09:54:19;;;;;;;10.77;6.55;;;34.40;67.30;;;;;;7412906;19;19922;-76
2023/08/26 09:56:46;;;;;;;10.75;6.03;;;35.60;64.80;;;;;;7414844;19;19971;-76
2023/08/26 09:59:12;;;;;;;9.65;4.95;;;36.50;61.70;;;;;;7406216;19;20271;-75
2023/08/26 10:01:39;;;;;;;9.25;6.43;;;37.00;60.30;;;;;;7408050;19;19914;-75
2023/08/26 10:04:15;;;;;;;10.15;6.50;;;37.10;59.00;;;;;;7410816;19;20526;-76
2023/08/26 10:06:55;;;;;;;11.65;6.95;;;35.40;59.90;;;;;;7414758;19;19941;-74
2023/08/26 10:09:43;;;;;;;8.50;6.25;;;34.60;63.10;;;;;;7412993;19;19999;-75
2023/08/26 10:12:19;;;;;;;9.40;6.35;;;34.90;63.90;;;;;;7409213;19;19951;-74
2023/08/26 10:14:50;;;;;;;9.45;6.20;;;34.20;65.80;;;;;;7407955;19;20010;-74
2023/08/26 10:17:20;;;;;;;9.95;5.82;;;33.50;67.70;;;;;;7403927;19;19933;-75
2023/08/26 10:19:47;;;;;;;9.68;4.53;;;33.50;69.70;;;;;;7412506;19;20223;-74
2023/08/26 10:22:14;;;;;;;11.27;5.28;;;34.20;68.20;;;;;;7410878;19;19930;-74
2023/08/26 10:24:40;;;;;;;9.88;5.82;;;33.60;69.00;;;;;;7409662;19;19906;-75
2023/08/26 10:27:07;;;;;;;11.40;5.43;;;33.40;70.00;;;;;;7404861;19;19929;-75
2023/08/26 10:29:35;;;;;;;10.57;5.32;;;32.60;71.90;;;;;;7389085;19;20000;-75
2023/08/26 10:32:18;;;;;;;7.35;4.30;;;32.30;74.10;;;;;;7407461;19;19919;-75
2023/08/26 10:34:58;;;;;;;9.05;6.18;;;32.10;75.30;;;;;;7409730;19;20002;-74
2023/08/26 10:37:29;;;;;;;9.50;5.57;;;31.80;76.20;;;;;;7405804;19;19922;-74
2023/08/26 10:39:56;;;;;;;12.32;4.82;;;31.40;78.10;;;;;;7409746;19;20339;-75
2023/08/26 10:42:22;;;;;;;8.75;5.20;;;31.10;79.70;;;;;;7407368;19;19915;-75
2023/08/26 10:44:58;;;;;;;8.70;5.80;;;31.10;80.40;;;;;;7411344;19;19922;-74
2023/08/26 10:47:40;;;;;;;9.13;5.80;;;30.90;81.80;;;;;;7404643;19;19918;-74
2023/08/26 10:50:26;;;;;;;8.73;5.72;;;31.90;79.60;;;;;;7408469;19;19935;-74
2023/08/26 10:52:59;;;;;;;8.30;4.97;;;32.90;75.70;;;;;;7406894;19;19911;-75
2023/08/26 10:55:32;;;;;;;10.30;6.05;;;33.30;72.90;;;;;;7404607;19;19914;-76
2023/08/26 10:58:09;;;;;;;10.82;6.50;;;34.00;70.30;;;;;;7405836;19;19926;-74
2023/08/26 11:00:37;;;;;;;8.57;5.93;;;34.20;69.70;;;;;;7405635;19;19938;-74
2023/08/26 11:03:05;;;;;;;9.70;5.35;;;34.40;68.70;;;;;;7406926;19;19970;-75
2023/08/26 11:05:31;;;;;;;8.52;5.50;;;34.00;69.20;;;;;;7405617;19;19974;-75
2023/08/26 11:07:57;;;;;;;9.38;5.55;;;34.30;68.90;;;;;;7409331;19;19931;-74
2023/08/26 11:10:27;;;;;;;10.85;4.68;;;34.30;68.10;;;;;;7404237;19;20267;-74
2023/08/26 11:12:53;;;;;;;8.85;5.40;;;34.20;68.30;;;;;;7409764;19;19914;-75
2023/08/26 11:15:19;;;;;;;11.30;5.80;;;34.20;68.60;;;;;;7407027;19;19953;-75
2023/08/26 11:17:45;;;;;;;8.35;5.85;;;33.90;69.20;;;;;;7407274;19;19949;-74
2023/08/26 11:20:11;;;;;;;8.38;6.65;;;33.80;70.60;;;;;;7405309;19;19919;-75
2023/08/26 11:22:38;;;;;;;8.82;5.18;;;34.00;69.80;;;;;;7406990;19;19918;-75
2023/08/26 11:25:04;;;;;;;11.43;6.47;;;33.60;71.40;;;;;;7402683;19;19929;-74
2023/08/26 11:27:30;;;;;;;7.72;6.05;;;34.00;70.40;;;;;;7406166;19;19924;-74
2023/08/26 11:29:56;;;;;;;10.02;7.10;;;34.20;70.00;;;;;;7403445;19;19970;-74
2023/08/26 11:32:21;;;;;;;7.63;5.45;;;33.90;70.60;;;;;;7405085;19;19914;-74
2023/08/26 11:34:47;;;;;;;11.18;5.43;;;33.20;72.40;;;;;;7405953;19;19918;-74
2023/08/26 11:37:13;;;;;;;10.57;5.72;;;32.70;74.40;;;;;;7405061;19;20624;-74
2023/08/26 11:39:39;;;;;;;10.48;5.25;;;33.30;74.50;;;;;;7374023;19;19915;-74
2023/08/26 11:42:14;;;;;;;8.75;4.45;;;34.00;72.00;;;;;;7403722;19;20238;-74
2023/08/26 11:44:45;;;;;;;9.35;5.30;;;33.70;71.10;;;;;;7407093;19;19926;-74
2023/08/26 11:47:13;;;;;;;9.55;5.60;;;33.20;72.70;;;;;;7404953;19;19918;-73
2023/08/26 11:49:43;;;;;;;9.52;5.82;;;33.50;72.10;;;;;;7404140;19;19910;-74
2023/08/26 11:52:09;;;;;;;10.93;5.22;;;33.10;73.70;;;;;;7403663;19;19915;-75
2023/08/26 11:54:35;;;;;;;11.75;5.30;;;32.90;74.60;;;;;;7407466;19;19919;-73
2023/08/26 11:57:02;;;;;;;7.85;5.05;;;32.60;76.30;;;;;;7408411;19;19926;-75
2023/08/26 11:59:42;;;;;;;8.93;5.15;;;32.40;77.10;;;;;;7406305;19;19915;-75
2023/08/26 12:02:24;;;;;;;12.45;5.43;;;32.20;78.60;;;;;;7404895;19;19914;-74
2023/08/26 12:04:57;;;;;;;9.52;4.57;;;31.60;81.80;;;;;;7405018;19;19911;-74
2023/08/26 12:07:24;;;;;;;9.93;4.97;;;31.00;83.70;;;;;;7407622;19;19934;-74
2023/08/26 12:09:50;;;;;;;12.50;5.45;;;30.60;86.60;;;;;;7414532;19;19918;-75
2023/08/26 12:12:24;;;;;;;10.52;4.78;;;30.50;88.20;;;;;;7410690;19;19911;-74
2023/08/26 12:14:50;;;;;;;14.00;6.10;;;30.00;90.50;;;;;;7414043;19;19922;-75
2023/08/26 12:17:16;;;;;;;10.35;5.80;;;29.70;94.20;;;;;;7407529;19;19937;-75
2023/08/26 12:19:43;;;;;;;13.05;6.00;;;28.70;96.80;;;;;;7414050;19;19958;-78
2023/08/26 12:22:10;;;;;;;11.23;6.05;;;28.10;99.50;;;;;;7415734;19;19930;-76
2023/08/26 12:24:40;;;;;;;13.43;5.00;;;27.90;99.90;;;;;;7413584;19;20543;-74
2023/08/26 12:27:13;;;;;;;15.50;6.55;;;27.60;99.90;;;;;;7410509;19;19954;-75
2023/08/26 12:29:39;;;;;;;14.63;6.28;;;27.60;99.90;;;;;;7409350;19;19934;-74
2023/08/26 12:32:06;;;;;;;13.75;6.93;;;27.70;99.90;;;;;;7412511;19;19910;-73
2023/08/26 12:34:32;;;;;;;10.63;5.82;;;27.90;99.90;;;;;;7416460;19;20290;-74
2023/08/26 12:36:58;;;;;;;12.23;7.10;;;27.90;99.70;;;;;;7412601;19;19923;-74
2023/08/26 12:39:24;;;;;;;13.38;6.97;;;28.00;99.20;;;;;;7410814;19;19915;-75